sensor_id;sensor_type;location;lat;lon;timestamp;pressure;altitude;pressure_sealevel;temperature;humidity
10806;BME280;5455;53.224;6.000;2023-06-14T00:00:49;101778.19;;;16.00;65.37
10806;BME280;5455;53.224;6.000;2023-06-14T00:03:16;101773.81;;;15.99;65.82
10806;BME280;5455;53.224;6.000;2023-06-14T00:05:45;101767.41;;;15.95;66.43
10806;BME280;5455;53.224;6.000;2023-06-14T00:08:13;101766.94;;;15.93;66.57
10806;BME280;5455;53.224;6.000;2023-06-14T00:10:42;101774.88;;;15.91;66.78
10806;BME280;5455;53.224;6.000;2023-06-14T00:13:09;101771.22;;;15.87;67.25
10806;BME280;5455;53.224;6.000;2023-06-14T00:15:37;101776.72;;;15.83;67.67
10806;BME280;5455;53.224;6.000;2023-06-14T00:18:04;101772.41;;;15.86;67.86
10806;BME280;5455;53.224;6.000;2023-06-14T00:20:33;101770.38;;;15.83;68.49
10806;BME280;5455;53.224;6.000;2023-06-14T00:23:00;101775.88;;;15.79;68.83
10806;BME280;5455;53.224;6.000;2023-06-14T00:25:27;101778.22;;;15.77;69.28
10806;BME280;5455;53.224;6.000;2023-06-14T00:27:57;101783.41;;;15.79;69.25
10806;BME280;5455;53.224;6.000;2023-06-14T00:30:25;101776.16;;;15.74;70.01
10806;BME280;5455;53.224;6.000;2023-06-14T00:32:52;101774.88;;;15.68;70.70
10806;BME280;5455;53.224;6.000;2023-06-14T00:35:19;101771.66;;;15.66;70.92
10806;BME280;5455;53.224;6.000;2023-06-14T00:37:46;101776.81;;;15.64;71.14
10806;BME280;5455;53.224;6.000;2023-06-14T00:40:13;101777.91;;;15.60;72.23
10806;BME280;5455;53.224;6.000;2023-06-14T00:42:41;101777.09;;;15.59;72.45
10806;BME280;5455;53.224;6.000;2023-06-14T00:45:09;101777.09;;;15.59;73.18
10806;BME280;5455;53.224;6.000;2023-06-14T00:47:37;101763.44;;;15.51;73.51
10806;BME280;5455;53.224;6.000;2023-06-14T00:50:09;101776.59;;;15.54;74.13
10806;BME280;5455;53.224;6.000;2023-06-14T00:52:36;101777.81;;;15.53;74.49
10806;BME280;5455;53.224;6.000;2023-06-14T00:55:04;101779.25;;;15.47;75.39
10806;BME280;5455;53.224;6.000;2023-06-14T00:57:31;101778.38;;;15.42;76.25
10806;BME280;5455;53.224;6.000;2023-06-14T00:59:58;101769.97;;;15.39;76.46
10806;BME280;5455;53.224;6.000;2023-06-14T01:02:25;101778.69;;;15.37;77.35
10806;BME280;5455;53.224;6.000;2023-06-14T01:04:52;101768.66;;;15.33;78.18
10806;BME280;5455;53.224;6.000;2023-06-14T01:07:27;101780.16;;;15.31;78.70
10806;BME280;5455;53.224;6.000;2023-06-14T01:12:55;101777.66;;;15.26;80.30
10806;BME280;5455;53.224;6.000;2023-06-14T01:15:26;101769.31;;;15.26;80.64
10806;BME280;5455;53.224;6.000;2023-06-14T01:17:55;101771.69;;;15.24;80.99
10806;BME280;5455;53.224;6.000;2023-06-14T01:20:31;101772.06;;;15.23;81.70
10806;BME280;5455;53.224;6.000;2023-06-14T01:22:59;101771.97;;;15.19;82.13
10806;BME280;5455;53.224;6.000;2023-06-14T01:25:26;101771.09;;;15.15;83.25
10806;BME280;5455;53.224;6.000;2023-06-14T01:27:59;101760.72;;;15.12;83.48
10806;BME280;5455;53.224;6.000;2023-06-14T01:30:27;101776.16;;;15.10;84.30
10806;BME280;5455;53.224;6.000;2023-06-14T01:32:56;101777.69;;;15.07;85.03
10806;BME280;5455;53.224;6.000;2023-06-14T01:35:24;101768.56;;;15.07;85.78
10806;BME280;5455;53.224;6.000;2023-06-14T01:37:54;101784.81;;;15.05;86.28
10806;BME280;5455;53.224;6.000;2023-06-14T01:40:21;101780.31;;;15.00;87.12
10806;BME280;5455;53.224;6.000;2023-06-14T01:42:50;101781.88;;;14.98;87.65
10806;BME280;5455;53.224;6.000;2023-06-14T01:45:18;101782.22;;;14.96;87.99
10806;BME280;5455;53.224;6.000;2023-06-14T01:47:46;101782.16;;;14.93;89.11
10806;BME280;5455;53.224;6.000;2023-06-14T01:50:15;101780.56;;;14.92;89.64
10806;BME280;5455;53.224;6.000;2023-06-14T01:52:42;101786.03;;;14.88;90.50
10806;BME280;5455;53.224;6.000;2023-06-14T01:55:09;101780.84;;;14.86;91.04
10806;BME280;5455;53.224;6.000;2023-06-14T01:57:38;101778.81;;;14.83;91.91
10806;BME280;5455;53.224;6.000;2023-06-14T02:00:05;101787.50;;;14.82;92.28
10806;BME280;5455;53.224;6.000;2023-06-14T02:02:40;101786.25;;;14.79;93.24
10806;BME280;5455;53.224;6.000;2023-06-14T02:05:07;101785.75;;;14.74;93.45
10806;BME280;5455;53.224;6.000;2023-06-14T02:07:36;101793.63;;;14.72;94.33
10806;BME280;5455;53.224;6.000;2023-06-14T02:10:04;101784.84;;;14.70;94.96
10806;BME280;5455;53.224;6.000;2023-06-14T02:12:31;101784.75;;;14.66;95.77
10806;BME280;5455;53.224;6.000;2023-06-14T02:14:58;101784.00;;;14.66;96.28
10806;BME280;5455;53.224;6.000;2023-06-14T02:17:25;101780.31;;;14.62;96.85
10806;BME280;5455;53.224;6.000;2023-06-14T02:19:54;101783.91;;;14.62;97.54
10806;BME280;5455;53.224;6.000;2023-06-14T02:22:22;101784.63;;;14.59;97.88
10806;BME280;5455;53.224;6.000;2023-06-14T02:24:49;101784.97;;;14.58;98.66
10806;BME280;5455;53.224;6.000;2023-06-14T02:27:27;101781.78;;;14.56;99.49
10806;BME280;5455;53.224;6.000;2023-06-14T02:29:54;101781.34;;;14.54;99.98
10806;BME280;5455;53.224;6.000;2023-06-14T02:32:21;101783.66;;;14.52;100.00
10806;BME280;5455;53.224;6.000;2023-06-14T02:34:48;101780.44;;;14.50;100.00
10806;BME280;5455;53.224;6.000;2023-06-14T02:37:16;101775.63;;;14.47;100.00
10806;BME280;5455;53.224;6.000;2023-06-14T02:39:43;101775.97;;;14.45;100.00
10806;BME280;5455;53.224;6.000;2023-06-14T02:42:10;101783.78;;;14.40;100.00
10806;BME280;5455;53.224;6.000;2023-06-14T02:44:37;101785.75;;;14.39;100.00
10806;BME280;5455;53.224;6.000;2023-06-14T02:47:04;101792.47;;;14.38;100.00
10806;BME280;5455;53.224;6.000;2023-06-14T02:49:31;101785.22;;;14.33;100.00
10806;BME280;5455;53.224;6.000;2023-06-14T02:51:59;101786.41;;;14.32;100.00
10806;BME280;5455;53.224;6.000;2023-06-14T02:54:26;101783.94;;;14.31;100.00
10806;BME280;5455;53.224;6.000;2023-06-14T02:56:53;101790.13;;;14.24;100.00
10806;BME280;5455;53.224;6.000;2023-06-14T02:59:21;101786.56;;;14.24;100.00
10806;BME280;5455;53.224;6.000;2023-06-14T03:01:55;101783.78;;;14.24;100.00
10806;BME280;5455;53.224;6.000;2023-06-14T03:04:22;101794.88;;;14.24;100.00
10806;BME280;5455;53.224;6.000;2023-06-14T03:06:49;101792.84;;;14.21;100.00
10806;BME280;5455;53.224;6.000;2023-06-14T03:09:19;101792.75;;;14.17;100.00
10806;BME280;5455;53.224;6.000;2023-06-14T03:11:47;101797.84;;;14.15;100.00
10806;BME280;5455;53.224;6.000;2023-06-14T03:14:15;101804.56;;;14.14;100.00
10806;BME280;5455;53.224;6.000;2023-06-14T03:16:44;101798.56;;;14.12;100.00
10806;BME280;5455;53.224;6.000;2023-06-14T03:19:13;101804.50;;;14.11;100.00
10806;BME280;5455;53.224;6.000;2023-06-14T03:21:40;101803.25;;;14.08;100.00
10806;BME280;5455;53.224;6.000;2023-06-14T03:24:11;101806.81;;;14.09;100.00
10806;BME280;5455;53.224;6.000;2023-06-14T03:26:39;101812.72;;;14.07;100.00
10806;BME280;5455;53.224;6.000;2023-06-14T03:29:06;101811.47;;;14.05;100.00
10806;BME280;5455;53.224;6.000;2023-06-14T03:31:34;101809.31;;;13.98;100.00
10806;BME280;5455;53.224;6.000;2023-06-14T03:34:04;101812.53;;;14.00;100.00
10806;BME280;5455;53.224;6.000;2023-06-14T03:36:31;101816.13;;;14.01;100.00
10806;BME280;5455;53.224;6.000;2023-06-14T03:39:00;101808.25;;;14.03;100.00
10806;BME280;5455;53.224;6.000;2023-06-14T03:41:27;101818.53;;;14.02;100.00
10806;BME280;5455;53.224;6.000;2023-06-14T03:43:54;101813.81;;;14.03;100.00
10806;BME280;5455;53.224;6.000;2023-06-14T03:46:21;101811.38;;;14.01;100.00
10806;BME280;5455;53.224;6.000;2023-06-14T03:48:48;101817.81;;;14.05;100.00
10806;BME280;5455;53.224;6.000;2023-06-14T03:51:16;101821.31;;;14.02;100.00
10806;BME280;5455;53.224;6.000;2023-06-14T03:53:43;101812.63;;;14.04;100.00
10806;BME280;5455;53.224;6.000;2023-06-14T03:56:31;101815.06;;;14.05;100.00
10806;BME280;5455;53.224;6.000;2023-06-14T03:58:58;101817.81;;;14.05;100.00
10806;BME280;5455;53.224;6.000;2023-06-14T04:01:27;101825.44;;;14.08;100.00
10806;BME280;5455;53.224;6.000;2023-06-14T04:03:58;101820.22;;;14.07;100.00
10806;BME280;5455;53.224;6.000;2023-06-14T04:06:25;101829.00;;;14.09;100.00
10806;BME280;5455;53.224;6.000;2023-06-14T04:09:00;101834.28;;;14.14;100.00
10806;BME280;5455;53.224;6.000;2023-06-14T04:11:30;101842.22;;;14.15;100.00
10806;BME280;5455;53.224;6.000;2023-06-14T04:13:58;101841.50;;;14.18;100.00
10806;BME280;5455;53.224;6.000;2023-06-14T04:16:26;101839.53;;;14.19;100.00
10806;BME280;5455;53.224;6.000;2023-06-14T04:18:55;101837.59;;;14.19;100.00
10806;BME280;5455;53.224;6.000;2023-06-14T04:21:22;101849.63;;;14.27;100.00
10806;BME280;5455;53.224;6.000;2023-06-14T04:23:52;101854.84;;;14.28;100.00
10806;BME280;5455;53.224;6.000;2023-06-14T04:26:22;101858.56;;;14.32;100.00
10806;BME280;5455;53.224;6.000;2023-06-14T04:28:57;101858.28;;;14.38;100.00
10806;BME280;5455;53.224;6.000;2023-06-14T04:31:32;101861.94;;;14.42;100.00
10806;BME280;5455;53.224;6.000;2023-06-14T04:34:08;101857.25;;;14.46;100.00
10806;BME280;5455;53.224;6.000;2023-06-14T04:36:35;101868.09;;;14.51;100.00
10806;BME280;5455;53.224;6.000;2023-06-14T04:39:05;101867.00;;;14.55;100.00
10806;BME280;5455;53.224;6.000;2023-06-14T04:41:33;101863.16;;;14.60;100.00
10806;BME280;5455;53.224;6.000;2023-06-14T04:44:02;101870.03;;;14.66;100.00
10806;BME280;5455;53.224;6.000;2023-06-14T04:46:36;101866.53;;;14.69;100.00
10806;BME280;5455;53.224;6.000;2023-06-14T04:49:23;101869.03;;;14.74;100.00
10806;BME280;5455;53.224;6.000;2023-06-14T04:51:53;101864.81;;;14.80;100.00
10806;BME280;5455;53.224;6.000;2023-06-14T04:54:40;101878.06;;;14.86;100.00
10806;BME280;5455;53.224;6.000;2023-06-14T04:57:14;101885.19;;;14.87;100.00
10806;BME280;5455;53.224;6.000;2023-06-14T04:59:46;101879.72;;;14.91;100.00
10806;BME280;5455;53.224;6.000;2023-06-14T05:02:13;101890.09;;;14.94;100.00
10806;BME280;5455;53.224;6.000;2023-06-14T05:04:40;101886.59;;;14.97;100.00
10806;BME280;5455;53.224;6.000;2023-06-14T05:07:08;101881.47;;;14.99;100.00
10806;BME280;5455;53.224;6.000;2023-06-14T05:09:36;101891.09;;;15.02;100.00
10806;BME280;5455;53.224;6.000;2023-06-14T05:12:03;101887.28;;;15.10;100.00
10806;BME280;5455;53.224;6.000;2023-06-14T05:14:30;101892.41;;;15.27;100.00
10806;BME280;5455;53.224;6.000;2023-06-14T05:17:00;101891.75;;;15.33;100.00
10806;BME280;5455;53.224;6.000;2023-06-14T05:19:27;101890.72;;;15.41;100.00
10806;BME280;5455;53.224;6.000;2023-06-14T05:21:54;101893.38;;;15.54;100.00
10806;BME280;5455;53.224;6.000;2023-06-14T05:24:21;101892.78;;;15.64;100.00
10806;BME280;5455;53.224;6.000;2023-06-14T05:26:49;101896.81;;;15.66;100.00
10806;BME280;5455;53.224;6.000;2023-06-14T05:29:16;101896.94;;;15.73;100.00
10806;BME280;5455;53.224;6.000;2023-06-14T05:31:43;101899.50;;;15.82;100.00
10806;BME280;5455;53.224;6.000;2023-06-14T05:34:10;101891.56;;;15.84;100.00
10806;BME280;5455;53.224;6.000;2023-06-14T05:36:37;101894.06;;;15.89;100.00
10806;BME280;5455;53.224;6.000;2023-06-14T05:39:04;101889.34;;;15.93;100.00
10806;BME280;5455;53.224;6.000;2023-06-14T05:41:32;101895.22;;;16.11;100.00
10806;BME280;5455;53.224;6.000;2023-06-14T05:43:59;101904.94;;;16.20;100.00
10806;BME280;5455;53.224;6.000;2023-06-14T05:46:27;101902.28;;;16.27;100.00
10806;BME280;5455;53.224;6.000;2023-06-14T05:48:55;101904.81;;;16.36;100.00
10806;BME280;5455;53.224;6.000;2023-06-14T05:51:22;101903.81;;;16.47;100.00
10806;BME280;5455;53.224;6.000;2023-06-14T05:53:52;101906.75;;;16.55;100.00
10806;BME280;5455;53.224;6.000;2023-06-14T05:56:19;101912.41;;;16.62;100.00
10806;BME280;5455;53.224;6.000;2023-06-14T05:58:46;101914.88;;;16.67;100.00
10806;BME280;5455;53.224;6.000;2023-06-14T06:01:14;101917.41;;;16.75;100.00
10806;BME280;5455;53.224;6.000;2023-06-14T06:03:41;101917.88;;;16.81;100.00
10806;BME280;5455;53.224;6.000;2023-06-14T06:06:08;101912.84;;;16.90;100.00
10806;BME280;5455;53.224;6.000;2023-06-14T06:08:35;101910.59;;;16.99;100.00
10806;BME280;5455;53.224;6.000;2023-06-14T06:11:02;101913.16;;;17.11;100.00
10806;BME280;5455;53.224;6.000;2023-06-14T06:13:29;101917.31;;;17.24;100.00
10806;BME280;5455;53.224;6.000;2023-06-14T06:15:56;101912.16;;;17.26;100.00
10806;BME280;5455;53.224;6.000;2023-06-14T06:18:23;101914.28;;;17.36;100.00
10806;BME280;5455;53.224;6.000;2023-06-14T06:20:50;101922.72;;;17.43;100.00
10806;BME280;5455;53.224;6.000;2023-06-14T06:23:18;101914.44;;;17.50;100.00
10806;BME280;5455;53.224;6.000;2023-06-14T06:25:45;101924.53;;;17.58;100.00
10806;BME280;5455;53.224;6.000;2023-06-14T06:28:12;101925.03;;;17.68;100.00
10806;BME280;5455;53.224;6.000;2023-06-14T06:30:39;101921.16;;;17.79;100.00
10806;BME280;5455;53.224;6.000;2023-06-14T06:33:06;101927.25;;;17.88;100.00
10806;BME280;5455;53.224;6.000;2023-06-14T06:35:33;101930.16;;;17.99;100.00
10806;BME280;5455;53.224;6.000;2023-06-14T06:38:00;101937.81;;;18.05;98.38
10806;BME280;5455;53.224;6.000;2023-06-14T06:40:28;101942.28;;;18.13;97.90
10806;BME280;5455;53.224;6.000;2023-06-14T06:42:55;101946.31;;;18.20;96.81
10806;BME280;5455;53.224;6.000;2023-06-14T06:45:26;101944.06;;;18.32;94.72
10806;BME280;5455;53.224;6.000;2023-06-14T06:47:53;101942.88;;;18.37;92.80
10806;BME280;5455;53.224;6.000;2023-06-14T06:50:20;101952.16;;;18.44;92.50
10806;BME280;5455;53.224;6.000;2023-06-14T06:52:50;101951.03;;;18.52;91.51
10806;BME280;5455;53.224;6.000;2023-06-14T06:55:17;101953.91;;;18.59;90.33
10806;BME280;5455;53.224;6.000;2023-06-14T06:57:45;101958.75;;;18.69;89.01
10806;BME280;5455;53.224;6.000;2023-06-14T07:00:12;101961.19;;;18.75;89.23
10806;BME280;5455;53.224;6.000;2023-06-14T07:02:40;101959.22;;;18.79;86.64
10806;BME280;5455;53.224;6.000;2023-06-14T07:05:07;101966.84;;;18.85;84.20
10806;BME280;5455;53.224;6.000;2023-06-14T07:07:35;101966.53;;;18.94;84.97
10806;BME280;5455;53.224;6.000;2023-06-14T07:10:02;101966.16;;;19.02;83.82
10806;BME280;5455;53.224;6.000;2023-06-14T07:12:31;101965.44;;;19.12;85.24
10806;BME280;5455;53.224;6.000;2023-06-14T07:15:01;101974.31;;;19.25;83.41
10806;BME280;5455;53.224;6.000;2023-06-14T07:17:29;101978.72;;;19.30;82.40
10806;BME280;5455;53.224;6.000;2023-06-14T07:19:56;101987.97;;;19.37;82.30
10806;BME280;5455;53.224;6.000;2023-06-14T07:22:23;101977.63;;;19.41;82.31
10806;BME280;5455;53.224;6.000;2023-06-14T07:24:51;101983.25;;;19.48;83.09
10806;BME280;5455;53.224;6.000;2023-06-14T07:27:17;101984.13;;;19.63;81.16
10806;BME280;5455;53.224;6.000;2023-06-14T07:29:44;101984.97;;;19.70;80.08
10806;BME280;5455;53.224;6.000;2023-06-14T07:32:11;101988.16;;;19.72;78.51
10806;BME280;5455;53.224;6.000;2023-06-14T07:34:38;101992.19;;;19.78;77.41
10806;BME280;5455;53.224;6.000;2023-06-14T07:37:05;101993.81;;;19.90;77.83
10806;BME280;5455;53.224;6.000;2023-06-14T07:39:32;101995.06;;;20.07;77.17
10806;BME280;5455;53.224;6.000;2023-06-14T07:41:59;101993.06;;;20.07;73.76
10806;BME280;5455;53.224;6.000;2023-06-14T07:44:29;101990.69;;;20.16;74.45
10806;BME280;5455;53.224;6.000;2023-06-14T07:46:58;101993.16;;;20.32;73.41
10806;BME280;5455;53.224;6.000;2023-06-14T07:49:28;101989.16;;;20.40;73.19
10806;BME280;5455;53.224;6.000;2023-06-14T07:51:55;101992.78;;;20.44;71.07
10806;BME280;5455;53.224;6.000;2023-06-14T07:54:22;101993.97;;;20.50;67.98
10806;BME280;5455;53.224;6.000;2023-06-14T07:56:53;101991.97;;;20.61;70.25
10806;BME280;5455;53.224;6.000;2023-06-14T07:59:20;101999.19;;;20.83;68.91
10806;BME280;5455;53.224;6.000;2023-06-14T08:01:48;101991.19;;;20.96;65.83
10806;BME280;5455;53.224;6.000;2023-06-14T08:04:15;102002.78;;;21.02;64.34
10806;BME280;5455;53.224;6.000;2023-06-14T08:06:42;101998.78;;;21.03;64.10
10806;BME280;5455;53.224;6.000;2023-06-14T08:09:14;101999.59;;;21.14;64.91
10806;BME280;5455;53.224;6.000;2023-06-14T08:11:41;102011.59;;;21.25;64.59
10806;BME280;5455;53.224;6.000;2023-06-14T08:14:08;102001.16;;;21.32;66.13
10806;BME280;5455;53.224;6.000;2023-06-14T08:16:35;102008.72;;;21.50;66.02
10806;BME280;5455;53.224;6.000;2023-06-14T08:19:02;102012.28;;;21.64;64.98
10806;BME280;5455;53.224;6.000;2023-06-14T08:21:30;102009.44;;;21.71;62.78
10806;BME280;5455;53.224;6.000;2023-06-14T08:24:00;102005.06;;;21.63;62.38
10806;BME280;5455;53.224;6.000;2023-06-14T08:26:27;102016.19;;;21.84;63.07
10806;BME280;5455;53.224;6.000;2023-06-14T08:28:55;102017.03;;;21.88;60.22
10806;BME280;5455;53.224;6.000;2023-06-14T08:31:23;102012.19;;;21.92;59.69
10806;BME280;5455;53.224;6.000;2023-06-14T08:33:51;102015.81;;;21.82;59.67
10806;BME280;5455;53.224;6.000;2023-06-14T08:36:18;102009.34;;;22.00;60.54
10806;BME280;5455;53.224;6.000;2023-06-14T08:38:46;102011.16;;;22.31;60.74
10806;BME280;5455;53.224;6.000;2023-06-14T08:41:20;102014.16;;;22.61;60.38
10806;BME280;5455;53.224;6.000;2023-06-14T08:43:47;102024.25;;;22.59;56.26
10806;BME280;5455;53.224;6.000;2023-06-14T08:46:17;102015.13;;;22.40;55.77
10806;BME280;5455;53.224;6.000;2023-06-14T08:48:51;102018.69;;;22.44;56.95
10806;BME280;5455;53.224;6.000;2023-06-14T08:51:19;102018.97;;;22.64;56.89
10806;BME280;5455;53.224;6.000;2023-06-14T08:53:53;102016.09;;;22.75;55.68
10806;BME280;5455;53.224;6.000;2023-06-14T08:56:31;102016.03;;;22.82;53.71
10806;BME280;5455;53.224;6.000;2023-06-14T08:58:58;102006.81;;;22.78;54.03
10806;BME280;5455;53.224;6.000;2023-06-14T09:01:33;102002.66;;;22.93;54.85
10806;BME280;5455;53.224;6.000;2023-06-14T09:04:01;102009.34;;;23.10;54.04
10806;BME280;5455;53.224;6.000;2023-06-14T09:06:29;102010.56;;;23.09;53.37
10806;BME280;5455;53.224;6.000;2023-06-14T09:08:56;102014.66;;;23.04;53.23
10806;BME280;5455;53.224;6.000;2023-06-14T09:11:24;102003.81;;;22.99;53.34
10806;BME280;5455;53.224;6.000;2023-06-14T09:13:52;102012.16;;;23.10;52.42
10806;BME280;5455;53.224;6.000;2023-06-14T09:16:19;102009.28;;;23.17;53.03
10806;BME280;5455;53.224;6.000;2023-06-14T09:18:47;102020.31;;;23.41;52.36
10806;BME280;5455;53.224;6.000;2023-06-14T09:21:16;102023.22;;;23.31;50.97
10806;BME280;5455;53.224;6.000;2023-06-14T09:23:45;102027.63;;;23.28;51.12
10806;BME280;5455;53.224;6.000;2023-06-14T09:26:14;102026.91;;;23.24;50.94
10806;BME280;5455;53.224;6.000;2023-06-14T09:28:50;102016.44;;;23.25;50.59
10806;BME280;5455;53.224;6.000;2023-06-14T09:31:19;102021.25;;;23.28;49.79
10806;BME280;5455;53.224;6.000;2023-06-14T09:33:48;102019.91;;;23.43;50.70
10806;BME280;5455;53.224;6.000;2023-06-14T09:36:21;102027.19;;;23.71;51.41
10806;BME280;5455;53.224;6.000;2023-06-14T09:39:00;102023.91;;;23.79;50.70
10806;BME280;5455;53.224;6.000;2023-06-14T09:41:31;102027.38;;;23.90;49.87
10806;BME280;5455;53.224;6.000;2023-06-14T09:44:00;102015.81;;;23.81;48.42
10806;BME280;5455;53.224;6.000;2023-06-14T09:46:36;102024.34;;;23.74;48.20
10806;BME280;5455;53.224;6.000;2023-06-14T09:49:04;102029.56;;;23.76;47.20
10806;BME280;5455;53.224;6.000;2023-06-14T09:51:33;102033.28;;;23.99;48.11
10806;BME280;5455;53.224;6.000;2023-06-14T09:54:02;102031.97;;;24.07;47.27
10806;BME280;5455;53.224;6.000;2023-06-14T09:56:36;102023.09;;;24.09;46.28
10806;BME280;5455;53.224;6.000;2023-06-14T09:59:05;102019.22;;;24.30;47.29
10806;BME280;5455;53.224;6.000;2023-06-14T10:01:36;102024.00;;;24.33;46.71
10806;BME280;5455;53.224;6.000;2023-06-14T10:04:07;102030.97;;;24.51;48.30
10806;BME280;5455;53.224;6.000;2023-06-14T10:06:41;102024.34;;;24.61;46.41
10806;BME280;5455;53.224;6.000;2023-06-14T10:09:10;102021.53;;;24.61;46.30
10806;BME280;5455;53.224;6.000;2023-06-14T10:11:38;102032.66;;;24.72;46.66
10806;BME280;5455;53.224;6.000;2023-06-14T10:14:12;102025.31;;;24.78;46.25
10806;BME280;5455;53.224;6.000;2023-06-14T10:19:27;102019.69;;;24.51;46.69
10806;BME280;5455;53.224;6.000;2023-06-14T10:24:41;102020.28;;;24.39;47.13
10806;BME280;5455;53.224;6.000;2023-06-14T10:27:09;102026.38;;;24.34;46.03
10806;BME280;5455;53.224;6.000;2023-06-14T10:32:24;102026.97;;;24.22;47.18
10806;BME280;5455;53.224;6.000;2023-06-14T10:35:00;102034.97;;;24.27;47.71
10806;BME280;5455;53.224;6.000;2023-06-14T10:37:28;102024.63;;;24.44;47.65
10806;BME280;5455;53.224;6.000;2023-06-14T10:39:55;102012.66;;;24.36;47.95
10806;BME280;5455;53.224;6.000;2023-06-14T10:42:28;102025.06;;;24.42;47.25
10806;BME280;5455;53.224;6.000;2023-06-14T10:44:56;102028.47;;;24.30;47.20
10806;BME280;5455;53.224;6.000;2023-06-14T10:47:28;102026.59;;;24.20;46.69
10806;BME280;5455;53.224;6.000;2023-06-14T10:50:03;102023.59;;;24.00;46.42
10806;BME280;5455;53.224;6.000;2023-06-14T10:52:40;102017.91;;;24.04;47.82
10806;BME280;5455;53.224;6.000;2023-06-14T10:57:47;102017.28;;;24.23;46.71
10806;BME280;5455;53.224;6.000;2023-06-14T11:00:21;102023.59;;;24.57;46.45
10806;BME280;5455;53.224;6.000;2023-06-14T11:11:13;102021.97;;;24.60;45.14
10806;BME280;5455;53.224;6.000;2023-06-14T11:13:46;102012.75;;;24.83;45.68
10806;BME280;5455;53.224;6.000;2023-06-14T11:16:15;102017.88;;;24.88;45.30
10806;BME280;5455;53.224;6.000;2023-06-14T11:18:44;102020.78;;;25.07;45.27
10806;BME280;5455;53.224;6.000;2023-06-14T11:21:15;102018.94;;;24.97;45.40
10806;BME280;5455;53.224;6.000;2023-06-14T11:23:48;102014.66;;;24.89;45.25
10806;BME280;5455;53.224;6.000;2023-06-14T11:26:15;102011.94;;;24.82;44.64
10806;BME280;5455;53.224;6.000;2023-06-14T11:28:42;102005.50;;;24.82;44.58
10806;BME280;5455;53.224;6.000;2023-06-14T11:31:09;102011.47;;;24.87;44.57
10806;BME280;5455;53.224;6.000;2023-06-14T11:33:36;102003.72;;;24.91;45.23
10806;BME280;5455;53.224;6.000;2023-06-14T11:36:05;102002.63;;;25.08;44.73
10806;BME280;5455;53.224;6.000;2023-06-14T11:38:36;102010.00;;;25.02;43.90
10806;BME280;5455;53.224;6.000;2023-06-14T11:41:04;102002.47;;;25.15;44.17
10806;BME280;5455;53.224;6.000;2023-06-14T11:43:31;102018.28;;;25.33;44.29
10806;BME280;5455;53.224;6.000;2023-06-14T11:46:00;101999.81;;;25.48;44.02
10806;BME280;5455;53.224;6.000;2023-06-14T11:48:38;102002.44;;;25.39;43.26
10806;BME280;5455;53.224;6.000;2023-06-14T11:51:05;101993.25;;;25.35;42.78
10806;BME280;5455;53.224;6.000;2023-06-14T11:53:33;101985.66;;;25.32;43.55
10806;BME280;5455;53.224;6.000;2023-06-14T11:56:01;101999.00;;;25.51;42.41
10806;BME280;5455;53.224;6.000;2023-06-14T11:58:29;102000.06;;;25.37;41.94
10806;BME280;5455;53.224;6.000;2023-06-14T12:00:57;101996.72;;;25.42;42.06
10806;BME280;5455;53.224;6.000;2023-06-14T12:03:25;101989.56;;;25.57;41.82
10806;BME280;5455;53.224;6.000;2023-06-14T12:06:07;101982.88;;;26.07;41.24
10806;BME280;5455;53.224;6.000;2023-06-14T12:08:36;101999.63;;;25.98;41.31
10806;BME280;5455;53.224;6.000;2023-06-14T12:11:11;101997.75;;;25.91;42.45
10806;BME280;5455;53.224;6.000;2023-06-14T12:13:39;101988.78;;;25.77;41.96
10806;BME280;5455;53.224;6.000;2023-06-14T12:16:08;101986.22;;;25.82;42.46
10806;BME280;5455;53.224;6.000;2023-06-14T12:18:37;101981.59;;;26.08;42.47
10806;BME280;5455;53.224;6.000;2023-06-14T12:21:05;101978.25;;;26.33;43.05
10806;BME280;5455;53.224;6.000;2023-06-14T12:26:09;102003.03;;;26.61;40.87
10806;BME280;5455;53.224;6.000;2023-06-14T12:28:40;102005.84;;;26.77;39.02
10806;BME280;5455;53.224;6.000;2023-06-14T12:31:09;101997.19;;;27.00;38.87
10806;BME280;5455;53.224;6.000;2023-06-14T12:33:36;101997.28;;;26.97;38.58
10806;BME280;5455;53.224;6.000;2023-06-14T12:36:04;101993.31;;;26.94;38.68
10806;BME280;5455;53.224;6.000;2023-06-14T12:38:32;101991.13;;;27.14;38.22
10806;BME280;5455;53.224;6.000;2023-06-14T12:41:00;101996.97;;;27.52;39.31
10806;BME280;5455;53.224;6.000;2023-06-14T12:43:27;101984.66;;;27.14;41.65
10806;BME280;5455;53.224;6.000;2023-06-14T12:45:54;101984.88;;;27.07;42.35
10806;BME280;5455;53.224;6.000;2023-06-14T12:48:21;101995.91;;;27.75;42.08
10806;BME280;5455;53.224;6.000;2023-06-14T12:50:49;101998.28;;;28.05;42.51
10806;BME280;5455;53.224;6.000;2023-06-14T12:53:16;101991.94;;;27.85;43.95
10806;BME280;5455;53.224;6.000;2023-06-14T12:55:43;101985.31;;;27.34;45.04
10806;BME280;5455;53.224;6.000;2023-06-14T12:58:10;101981.38;;;27.60;45.51
10806;BME280;5455;53.224;6.000;2023-06-14T13:00:40;101974.09;;;27.30;45.02
10806;BME280;5455;53.224;6.000;2023-06-14T13:03:07;101990.25;;;26.53;47.92
10806;BME280;5455;53.224;6.000;2023-06-14T13:05:34;101980.97;;;26.68;50.36
10806;BME280;5455;53.224;6.000;2023-06-14T13:08:02;101981.91;;;26.81;48.98
10806;BME280;5455;53.224;6.000;2023-06-14T13:10:29;101983.97;;;26.77;48.17
10806;BME280;5455;53.224;6.000;2023-06-14T13:12:56;101985.41;;;26.37;48.39
10806;BME280;5455;53.224;6.000;2023-06-14T13:15:24;101985.34;;;26.41;48.74
10806;BME280;5455;53.224;6.000;2023-06-14T13:17:51;101987.06;;;25.99;49.69
10806;BME280;5455;53.224;6.000;2023-06-14T13:20:19;101990.09;;;26.08;47.76
10806;BME280;5455;53.224;6.000;2023-06-14T13:22:47;101986.66;;;26.36;47.91
10806;BME280;5455;53.224;6.000;2023-06-14T13:25:14;101995.59;;;26.99;49.10
10806;BME280;5455;53.224;6.000;2023-06-14T13:27:41;101984.88;;;27.07;50.53
10806;BME280;5455;53.224;6.000;2023-06-14T13:30:08;101976.47;;;26.71;51.34